createdAt,value
2022-08-31T00:01:25.613Z,99.90
2022-08-31T00:06:33.468Z,99.90
2022-08-31T00:11:39.338Z,99.90
2022-08-31T00:16:46.331Z,99.90
2022-08-31T00:21:51.723Z,99.90
2022-08-31T00:26:56.654Z,99.90
2022-08-31T00:32:02.650Z,99.90
2022-08-31T00:37:07.736Z,99.90
2022-08-31T00:42:12.780Z,99.90
2022-08-31T00:47:18.150Z,99.90
2022-08-31T00:52:27.115Z,99.90
2022-08-31T00:57:36.281Z,99.90
2022-08-31T01:02:42.588Z,99.90
2022-08-31T01:07:49.653Z,99.90
2022-08-31T01:12:57.499Z,99.90
2022-08-31T01:18:05.506Z,99.90
2022-08-31T01:23:20.579Z,99.90
2022-08-31T01:28:27.442Z,99.90
2022-08-31T01:33:34.666Z,99.90
2022-08-31T01:38:40.058Z,99.90
2022-08-31T01:43:45.226Z,99.90
2022-08-31T01:48:50.679Z,99.90
2022-08-31T01:53:56.569Z,99.90
2022-08-31T01:59:07.651Z,99.90
2022-08-31T02:04:11.119Z,99.90
2022-08-31T02:09:17.847Z,99.90
2022-08-31T02:14:23.849Z,99.90
2022-08-31T02:19:30.253Z,99.90
2022-08-31T02:24:35.739Z,99.90
2022-08-31T02:29:41.177Z,99.90
2022-08-31T02:34:49.661Z,99.90
2022-08-31T02:39:55.453Z,99.90
2022-08-31T02:45:01.501Z,99.90
2022-08-31T02:50:08.261Z,99.90
2022-08-31T02:55:14.248Z,99.90
2022-08-31T03:00:22.470Z,99.90
2022-08-31T03:05:29.094Z,99.90
2022-08-31T03:10:34.532Z,99.90
2022-08-31T03:15:40.159Z,99.90
2022-08-31T03:20:45.130Z,99.90
2022-08-31T03:25:50.971Z,99.90
2022-08-31T03:30:56.227Z,99.90
2022-08-31T03:36:04.692Z,99.90
2022-08-31T03:41:12.500Z,99.90
2022-08-31T03:46:18.039Z,99.90
2022-08-31T03:51:23.224Z,99.90
2022-08-31T03:56:28.890Z,99.90
2022-08-31T04:01:33.865Z,99.90
2022-08-31T04:06:42.129Z,99.90
2022-08-31T04:11:48.306Z,99.90
2022-08-31T04:16:54.095Z,99.90
2022-08-31T04:21:59.433Z,99.90
2022-08-31T04:27:04.578Z,99.90
2022-08-31T04:32:10.039Z,99.90
2022-08-31T04:37:15.487Z,99.90
2022-08-31T04:42:21.497Z,99.90
2022-08-31T04:47:26.991Z,99.90
2022-08-31T04:52:33.624Z,99.90
2022-08-31T04:57:40.615Z,99.90
2022-08-31T05:02:52.708Z,99.90
2022-08-31T05:07:53.800Z,99.90
2022-08-31T05:12:59.231Z,99.90
2022-08-31T05:18:04.727Z,99.90
2022-08-31T05:23:10.779Z,99.90
2022-08-31T05:28:18.206Z,99.90
2022-08-31T05:33:23.654Z,99.90
2022-08-31T05:38:28.618Z,99.90
2022-08-31T05:43:34.943Z,99.90
2022-08-31T05:48:40.781Z,99.90
2022-08-31T05:53:47.358Z,99.90
2022-08-31T05:58:54.123Z,99.90
2022-08-31T06:04:00.642Z,99.90
2022-08-31T06:09:08.445Z,99.90
2022-08-31T06:14:14.659Z,99.90
2022-08-31T06:19:20.555Z,99.90
2022-08-31T06:24:27.254Z,99.90
2022-08-31T06:29:33.707Z,99.90
2022-08-31T06:34:40.535Z,99.90
2022-08-31T06:39:47.838Z,99.90
2022-08-31T06:44:53.302Z,99.90
2022-08-31T06:49:58.586Z,99.90
2022-08-31T06:55:03.629Z,99.90
2022-08-31T07:00:09.552Z,99.90
2022-08-31T07:05:19.916Z,99.90
2022-08-31T07:10:22.786Z,99.90
2022-08-31T07:15:27.902Z,99.90
2022-08-31T07:20:33.225Z,99.90
2022-08-31T07:25:39.440Z,99.90
2022-08-31T07:30:46.396Z,99.90
2022-08-31T07:35:52.727Z,99.90
2022-08-31T07:41:16.718Z,99.90
2022-08-31T07:46:22.946Z,99.90
2022-08-31T07:51:29.631Z,99.90
2022-08-31T07:56:37.401Z,99.90
2022-08-31T08:01:44.010Z,99.90
2022-08-31T08:06:50.139Z,99.90
2022-08-31T08:12:01.276Z,99.90
2022-08-31T08:17:07.621Z,99.90
2022-08-31T08:22:13.005Z,99.90
2022-08-31T08:27:19.484Z,99.90
2022-08-31T08:32:25.871Z,99.90
2022-08-31T08:37:56.548Z,99.90
2022-08-31T08:42:40.772Z,99.90
2022-08-31T08:47:47.916Z,99.90
2022-08-31T08:52:55.926Z,98.00
2022-08-31T08:58:03.125Z,2.50
2022-08-31T09:03:27.514Z,1.00
2022-08-31T09:08:54.852Z,1.00
2022-08-31T09:14:08.783Z,1.00
2022-08-31T09:19:17.703Z,1.00
2022-08-31T09:24:26.844Z,1.00
2022-08-31T09:29:33.201Z,1.00
2022-08-31T09:34:44.595Z,1.00
2022-08-31T09:39:53.037Z,1.00
2022-08-31T09:45:05.475Z,1.00
2022-08-31T09:50:13.515Z,1.00
2022-08-31T09:55:25.408Z,1.00
2022-08-31T10:00:42.925Z,1.00
2022-08-31T10:05:50.616Z,1.00
2022-08-31T10:11:00.682Z,1.00
2022-08-31T10:16:11.024Z,1.00
2022-08-31T10:21:21.608Z,1.00
2022-08-31T10:26:34.943Z,1.00
2022-08-31T10:31:48.348Z,1.00
2022-08-31T10:36:59.338Z,1.00
2022-08-31T10:42:08.172Z,1.00
2022-08-31T10:47:21.660Z,1.00
2022-08-31T10:52:29.714Z,1.00
2022-08-31T10:57:41.270Z,1.00
2022-08-31T11:02:56.189Z,1.00
2022-08-31T11:08:04.660Z,1.00
2022-08-31T11:13:15.259Z,1.00
2022-08-31T11:18:26.050Z,1.00
2022-08-31T11:23:42.184Z,1.00
2022-08-31T11:28:51.196Z,1.00
2022-08-31T11:34:15.608Z,1.00
2022-08-31T11:39:11.242Z,1.00
2022-08-31T11:44:36.939Z,1.00
2022-08-31T11:49:47.406Z,1.00
2022-08-31T11:54:55.962Z,1.00
2022-08-31T12:00:02.571Z,1.00
2022-08-31T12:05:08.294Z,1.00
2022-08-31T12:10:18.288Z,1.00
2022-08-31T12:15:40.936Z,1.00
2022-08-31T12:21:17.191Z,1.00
2022-08-31T12:26:25.215Z,1.00
2022-08-31T12:31:30.579Z,1.00
2022-08-31T12:36:37.952Z,4.90
2022-08-31T12:41:46.575Z,1.00
2022-08-31T12:47:24.044Z,1.00
2022-08-31T12:52:34.010Z,1.00
2022-08-31T12:58:01.719Z,1.00
2022-08-31T13:03:10.911Z,1.00
2022-08-31T13:08:26.455Z,1.00
2022-08-31T13:13:31.770Z,1.00
2022-08-31T13:18:37.559Z,1.00
2022-08-31T13:23:47.090Z,1.00
2022-08-31T13:28:55.950Z,1.10
2022-08-31T13:34:03.990Z,1.00
2022-08-31T13:39:18.264Z,18.90
2022-08-31T13:44:28.796Z,72.50
2022-08-31T13:49:42.070Z,68.10
2022-08-31T13:54:58.825Z,85.70
2022-08-31T14:00:24.232Z,98.10
2022-08-31T14:05:36.381Z,76.10
2022-08-31T14:10:46.392Z,99.90
2022-08-31T14:15:56.452Z,99.90
2022-08-31T14:21:27.456Z,99.90
2022-08-31T14:26:24.334Z,99.90
2022-08-31T14:31:38.495Z,99.90
2022-08-31T14:36:47.275Z,99.90
2022-08-31T14:41:55.819Z,99.90
2022-08-31T14:47:02.150Z,99.90
2022-08-31T14:52:08.607Z,99.90
2022-08-31T14:57:17.224Z,99.90
2022-08-31T15:02:23.630Z,99.90
2022-08-31T15:07:31.119Z,99.90
2022-08-31T15:12:37.581Z,99.90
2022-08-31T15:17:43.381Z,99.90
2022-08-31T15:22:48.831Z,99.90
2022-08-31T15:27:54.669Z,99.90
2022-08-31T15:33:01.430Z,99.90
2022-08-31T15:38:08.711Z,99.90
2022-08-31T15:43:16.206Z,99.90
2022-08-31T15:48:39.487Z,99.90
2022-08-31T15:54:01.023Z,99.90
2022-08-31T15:58:56.244Z,99.90
2022-08-31T16:04:01.809Z,99.90
2022-08-31T16:09:08.645Z,99.90
2022-08-31T16:14:15.857Z,99.90
2022-08-31T16:19:34.555Z,99.90
2022-08-31T16:24:28.615Z,99.90
2022-08-31T16:29:34.802Z,99.90
2022-08-31T16:34:42.943Z,99.90
2022-08-31T16:39:49.389Z,99.50
2022-08-31T16:44:59.836Z,1.00
2022-08-31T16:50:04.976Z,1.00
2022-08-31T16:55:13.193Z,1.00
2022-08-31T17:00:19.020Z,1.00
2022-08-31T17:05:26.468Z,1.00
2022-08-31T17:10:34.605Z,1.00
2022-08-31T17:15:41.308Z,1.00
2022-08-31T17:20:49.160Z,1.00
2022-08-31T17:25:56.460Z,1.00
2022-08-31T17:31:03.901Z,1.00
2022-08-31T17:36:10.169Z,1.00
2022-08-31T17:41:17.039Z,40.70
2022-08-31T17:46:22.441Z,79.00
2022-08-31T17:51:32.459Z,1.00
2022-08-31T17:56:47.870Z,19.50
2022-08-31T18:01:57.050Z,80.60
2022-08-31T18:07:04.769Z,99.90
2022-08-31T18:12:10.700Z,93.80
2022-08-31T18:17:20.201Z,38.50
2022-08-31T18:22:26.893Z,37.40
2022-08-31T18:27:33.059Z,39.30
2022-08-31T18:32:38.996Z,36.50
2022-08-31T18:37:50.214Z,99.90
2022-08-31T18:43:17.938Z,99.90
2022-08-31T18:48:26.578Z,99.90
2022-08-31T18:53:37.267Z,23.30
2022-08-31T18:58:43.504Z,1.00
2022-08-31T19:03:50.364Z,1.00
2022-08-31T19:08:56.020Z,48.10
2022-08-31T19:14:03.517Z,76.70
2022-08-31T19:19:09.815Z,99.90
2022-08-31T19:24:17.478Z,99.90
2022-08-31T19:29:27.192Z,99.90
2022-08-31T19:34:37.212Z,99.90
2022-08-31T19:39:46.224Z,99.90
2022-08-31T19:44:54.995Z,99.90
2022-08-31T19:50:03.217Z,99.90
2022-08-31T19:55:09.433Z,99.90
2022-08-31T20:00:16.038Z,99.90
2022-08-31T20:05:22.273Z,99.90
2022-08-31T20:10:28.831Z,99.90
2022-08-31T20:15:35.608Z,99.90
2022-08-31T20:20:46.228Z,99.90
2022-08-31T20:25:53.519Z,99.90
2022-08-31T20:31:01.234Z,99.90
2022-08-31T20:36:20.706Z,99.90
2022-08-31T20:41:32.709Z,99.90
2022-08-31T20:47:03.069Z,99.90
2022-08-31T20:52:09.841Z,95.20
2022-08-31T20:57:17.091Z,99.90
2022-08-31T21:02:23.158Z,97.70
2022-08-31T21:07:28.966Z,99.90
2022-08-31T21:12:34.290Z,99.90
2022-08-31T21:17:41.080Z,99.90
2022-08-31T21:22:46.223Z,99.90
2022-08-31T21:27:53.379Z,99.90
2022-08-31T21:32:58.454Z,99.90
2022-08-31T21:38:04.062Z,99.90
2022-08-31T21:43:09.942Z,99.90
2022-08-31T21:48:16.027Z,32.70
2022-08-31T21:53:22.157Z,99.90
2022-08-31T21:58:27.127Z,99.90
2022-08-31T22:03:33.776Z,99.90
2022-08-31T22:08:41.554Z,99.90
2022-08-31T22:13:48.002Z,99.90
2022-08-31T22:19:01.851Z,99.90
2022-08-31T22:24:10.722Z,99.90
2022-08-31T22:29:22.448Z,99.90
2022-08-31T22:34:28.336Z,95.10
2022-08-31T22:39:33.861Z,99.90
2022-08-31T22:44:41.003Z,99.90
2022-08-31T22:49:47.158Z,99.90
2022-08-31T22:54:52.595Z,99.90
2022-08-31T22:59:58.019Z,99.90
2022-08-31T23:05:03.629Z,96.00
2022-08-31T23:10:10.213Z,99.90
2022-08-31T23:15:16.379Z,99.90
2022-08-31T23:20:24.372Z,92.70
2022-08-31T23:25:31.306Z,85.60
2022-08-31T23:30:40.162Z,36.20
2022-08-31T23:35:47.249Z,89.80
2022-08-31T23:40:54.086Z,29.90
2022-08-31T23:46:03.464Z,6.50
2022-08-31T23:51:10.938Z,9.30
2022-08-31T23:56:18.615Z,77.50
